createdAt,value
2017-03-14T00:00:13.292Z,62.62
2017-03-14T00:01:23.562Z,62.62
2017-03-14T00:02:33.466Z,62.72
2017-03-14T00:03:43.821Z,62.91
2017-03-14T00:04:53.977Z,62.81
2017-03-14T00:06:04.286Z,63.1
2017-03-14T00:07:14.163Z,62.81
2017-03-14T00:08:24.410Z,63.39
2017-03-14T00:09:34.664Z,62.91
2017-03-14T00:10:45.201Z,63.01
2017-03-14T00:11:55.484Z,63.48
2017-03-14T00:13:05.769Z,63.29
2017-03-14T00:14:15.668Z,63.39
2017-03-14T00:15:26.020Z,63.39
2017-03-14T00:16:36.121Z,63.95
2017-03-14T00:17:46.519Z,64.05
2017-03-14T00:18:56.783Z,64.14
2017-03-14T00:20:07.035Z,64.14
2017-03-14T00:21:16.897Z,63.76
2017-03-14T00:22:27.629Z,63.95
2017-03-14T00:23:37.912Z,64.05
2017-03-14T00:24:48.210Z,63.67
2017-03-14T00:25:58.103Z,64.14
2017-03-14T00:27:07.945Z,64.05
2017-03-14T00:28:18.783Z,64.72
2017-03-14T00:29:28.751Z,64.49
2017-03-14T00:30:39.055Z,64.59
2017-03-14T00:31:48.901Z,65.06
2017-03-14T00:32:58.751Z,65.06
2017-03-14T00:34:09.269Z,64.97
2017-03-14T00:35:19.615Z,64.97
2017-03-14T00:36:29.490Z,65.06
2017-03-14T00:37:39.793Z,65.06
2017-03-14T00:38:50.068Z,65.25
2017-03-14T00:40:00.626Z,65
2017-03-14T00:41:10.901Z,65.76
2017-03-14T00:42:21.145Z,65.54
2017-03-14T00:43:31.446Z,65.54
2017-03-14T00:44:41.715Z,65.57
2017-03-14T00:45:52.244Z,65.44
2017-03-14T00:47:02.575Z,65.67
2017-03-14T00:48:12.837Z,65.92
2017-03-14T00:49:23.129Z,66.01
2017-03-14T00:50:33.427Z,66.01
2017-03-14T00:51:43.940Z,65.82
2017-03-14T00:52:54.401Z,65.82
2017-03-14T00:54:04.657Z,65.95
2017-03-14T00:55:14.934Z,66.01
2017-03-14T00:56:25.199Z,66.01
2017-03-14T00:57:35.745Z,66.3
2017-03-14T00:58:46.026Z,66.58
2017-03-14T00:59:55.884Z,66.42
2017-03-14T01:01:06.255Z,66.61
2017-03-14T01:02:16.505Z,66.61
2017-03-14T01:03:27.101Z,66.39
2017-03-14T01:04:37.362Z,66.49
2017-03-14T01:05:47.601Z,66.33
2017-03-14T01:06:57.878Z,66.24
2017-03-14T01:08:07.829Z,66.39
2017-03-14T01:09:18.352Z,66.49
2017-03-14T01:10:28.196Z,66.3
2017-03-14T01:11:37.709Z,66.58
2017-03-14T01:12:48.005Z,66.58
2017-03-14T01:13:58.264Z,66.77
2017-03-14T01:15:08.817Z,66.87
2017-03-14T01:16:19.200Z,66.96
2017-03-14T01:17:29.499Z,67.34
2017-03-14T01:18:39.399Z,66.96
2017-03-14T01:19:49.647Z,67.25
2017-03-14T01:21:00.172Z,67.44
2017-03-14T01:22:10.549Z,67.15
2017-03-14T01:23:20.943Z,67.44
2017-03-14T01:24:31.336Z,67.34
2017-03-14T01:25:41.186Z,67.34
2017-03-14T01:26:51.747Z,67.25
2017-03-14T01:28:01.587Z,67.53
2017-03-14T01:29:11.827Z,67.44
2017-03-14T01:30:22.088Z,67.44
2017-03-14T01:31:32.336Z,67.44
2017-03-14T01:32:42.861Z,67.82
2017-03-14T01:33:53.141Z,67.63
2017-03-14T01:35:03.447Z,67.72
2017-03-14T01:36:13.712Z,67.82
2017-03-14T01:37:23.965Z,68.01
2017-03-14T01:38:34.528Z,68.19
2017-03-14T01:39:44.465Z,68.1
2017-03-14T01:40:54.702Z,68.19
2017-03-14T01:42:04.598Z,68.29
2017-03-14T01:43:14.877Z,68.29
2017-03-14T01:44:25.451Z,68.67
2017-03-14T01:45:35.309Z,68.67
2017-03-14T01:46:45.552Z,68.48
2017-03-14T01:47:55.421Z,69.05
2017-03-14T01:49:05.713Z,69.05
2017-03-14T01:50:16.216Z,68.96
2017-03-14T01:51:26.480Z,69.24
2017-03-14T01:52:36.787Z,69.24
2017-03-14T01:53:47.068Z,69.05
2017-03-14T01:54:56.927Z,68.96
2017-03-14T01:56:07.185Z,69.24
2017-03-14T01:57:17.186Z,69.15
2017-03-14T01:58:27.145Z,69.34
2017-03-14T01:59:37.423Z,69.34
2017-03-14T02:00:47.416Z,69.71
2017-03-14T02:01:58.068Z,69.81
2017-03-14T02:03:08.366Z,69.43
2017-03-14T02:04:18.266Z,69.81
2017-03-14T02:05:28.122Z,69.71
2017-03-14T02:06:38.364Z,69.81
2017-03-14T02:07:48.503Z,69.81
2017-03-14T02:08:58.755Z,69.62
2017-03-14T02:10:09.050Z,69.81
2017-03-14T02:11:19.299Z,69.91
2017-03-14T02:12:29.548Z,69.62
2017-03-14T02:13:40.052Z,69.91
2017-03-14T02:14:50.343Z,69.71
2017-03-14T02:16:00.635Z,69.81
2017-03-14T02:17:10.870Z,69.81
2017-03-14T02:18:20.716Z,70.29
2017-03-14T02:19:31.242Z,70.1
2017-03-14T02:20:41.673Z,70.1
2017-03-14T02:21:51.667Z,70.38
2017-03-14T02:23:01.971Z,70.38
2017-03-14T02:24:12.221Z,70.67
2017-03-14T02:25:22.796Z,70.38
2017-03-14T02:26:33.059Z,70.67
2017-03-14T02:27:43.331Z,70.86
2017-03-14T02:28:53.197Z,70.86
2017-03-14T02:30:03.134Z,70.67
2017-03-14T02:31:13.666Z,70.67
2017-03-14T02:32:24.044Z,70.76
2017-03-14T02:33:34.279Z,70.86
2017-03-14T02:34:44.583Z,70.76
2017-03-14T02:35:54.452Z,70.76
2017-03-14T02:37:05.012Z,70.86
2017-03-14T02:38:14.896Z,70.76
2017-03-14T02:39:25.137Z,70.57
2017-03-14T02:40:35.374Z,70.57
2017-03-14T02:41:45.692Z,70.38
2017-03-14T02:42:56.315Z,70.95
2017-03-14T02:44:06.633Z,71.23
2017-03-14T02:45:16.470Z,71.43
2017-03-14T02:46:26.340Z,71.33
2017-03-14T02:47:36.174Z,71.14
2017-03-14T02:48:46.727Z,71.43
2017-03-14T02:49:57.016Z,71.23
2017-03-14T02:51:07.309Z,70.95
2017-03-14T02:52:17.588Z,71.62
2017-03-14T02:53:27.919Z,71.62
2017-03-14T02:54:38.431Z,71.9
2017-03-14T02:55:48.672Z,72.19
2017-03-14T02:56:58.982Z,72.09
2017-03-14T02:58:09.446Z,72.19
2017-03-14T02:59:19.732Z,72.47
2017-03-14T03:00:29.828Z,72
2017-03-14T03:01:40.102Z,72.66
2017-03-14T03:02:50.391Z,72.47
2017-03-14T03:04:00.646Z,72.38
2017-03-14T03:05:10.537Z,72.95
2017-03-14T03:06:21.084Z,72.66
2017-03-14T03:07:31.357Z,72.95
2017-03-14T03:08:41.638Z,72.95
2017-03-14T03:09:51.932Z,73.23
2017-03-14T03:11:02.290Z,72.95
2017-03-14T03:12:12.775Z,73.33
2017-03-14T03:13:22.743Z,74.08
2017-03-14T03:14:32.624Z,74.08
2017-03-14T03:15:42.970Z,74.08
2017-03-14T03:16:53.256Z,74.18
2017-03-14T03:18:03.440Z,74.37
2017-03-14T03:19:13.767Z,74.47
2017-03-14T03:20:24.090Z,74.75
2017-03-14T03:21:34.398Z,74.47
2017-03-14T03:22:44.860Z,75.13
2017-03-14T03:23:55.380Z,74.94
2017-03-14T03:25:05.642Z,74.94
2017-03-14T03:26:15.961Z,75.6
2017-03-14T03:27:26.231Z,75.6
2017-03-14T03:28:36.478Z,75.89
2017-03-14T03:29:46.966Z,75.99
2017-03-14T03:30:57.067Z,76.18
2017-03-14T03:32:07.329Z,76.5
2017-03-14T03:33:17.532Z,76.46
2017-03-14T03:34:27.803Z,76.37
2017-03-14T03:35:38.315Z,76.37
2017-03-14T03:36:48.177Z,76.56
2017-03-14T03:37:58.588Z,77.26
2017-03-14T03:39:08.673Z,77.73
2017-03-14T03:40:19.010Z,77.17
2017-03-14T03:41:29.624Z,77.55
2017-03-14T03:42:39.904Z,77.92
2017-03-14T03:43:50.260Z,77.92
2017-03-14T03:45:00.537Z,78.3
2017-03-14T03:46:10.782Z,78.5
2017-03-14T03:47:21.298Z,78.59
2017-03-14T03:48:31.691Z,78.69
2017-03-14T03:49:41.936Z,79.25
2017-03-14T03:50:52.266Z,79.16
2017-03-14T03:52:02.576Z,79.25
2017-03-14T03:53:12.669Z,79.35
2017-03-14T03:54:22.545Z,79.92
2017-03-14T03:55:32.901Z,80.87
2017-03-14T03:56:43.207Z,80.87
2017-03-14T03:57:53.056Z,80.21
2017-03-14T03:59:03.658Z,80.87
2017-03-14T04:00:13.938Z,81.16
2017-03-14T04:01:24.342Z,81.06
2017-03-14T04:02:34.664Z,81.25
2017-03-14T04:03:45.024Z,81.06
2017-03-14T04:04:55.579Z,80.87
2017-03-14T04:06:05.851Z,80.11
2017-03-14T04:07:16.186Z,80.21
2017-03-14T04:08:26.065Z,80.3
2017-03-14T04:09:36.338Z,79.73
2017-03-14T04:10:46.931Z,79.92
2017-03-14T04:11:57.228Z,80.02
2017-03-14T04:13:07.798Z,80.87
2017-03-14T04:14:18.134Z,80.77
2017-03-14T04:15:28.408Z,80.02
2017-03-14T04:16:38.523Z,80.02
2017-03-14T04:17:48.782Z,79.83
2017-03-14T04:18:59.079Z,80.11
2017-03-14T04:20:09.469Z,79.83
2017-03-14T04:21:19.307Z,80.02
2017-03-14T04:22:29.818Z,79.83
2017-03-14T04:23:40.105Z,80.11
2017-03-14T04:24:49.945Z,80.3
2017-03-14T04:26:00.216Z,80.21
2017-03-14T04:27:10.066Z,80.21
2017-03-14T04:28:20.680Z,79.83
2017-03-14T04:29:31.003Z,80.21
2017-03-14T04:30:40.848Z,79.92
2017-03-14T04:31:51.141Z,80.02
2017-03-14T04:33:01.485Z,79.73
2017-03-14T04:34:12.059Z,79.92
2017-03-14T04:35:21.911Z,79.83
2017-03-14T04:36:32.189Z,80.11
2017-03-14T04:37:42.285Z,80.11
2017-03-14T04:38:52.521Z,79.73
2017-03-14T04:40:03.042Z,79.92
2017-03-14T04:41:13.298Z,79.92
2017-03-14T04:42:23.530Z,79.83
2017-03-14T04:43:33.851Z,80.11
2017-03-14T04:44:44.264Z,79.73
2017-03-14T04:45:54.786Z,80.02
2017-03-14T04:47:05.109Z,80.11
2017-03-14T04:48:14.958Z,79.92
2017-03-14T04:49:24.844Z,79.54
2017-03-14T04:50:35.111Z,79.73
2017-03-14T04:51:45.628Z,79.25
2017-03-14T04:52:55.466Z,79.25
2017-03-14T04:54:05.753Z,79.25
2017-03-14T04:55:16.034Z,79.35
2017-03-14T04:56:26.301Z,79.35
2017-03-14T04:57:36.844Z,79.35
2017-03-14T04:58:47.111Z,79.35
2017-03-14T04:59:57.376Z,79.25
2017-03-14T05:01:07.225Z,79.44
2017-03-14T05:02:17.559Z,78.88
2017-03-14T05:03:28.092Z,78.88
2017-03-14T05:04:38.421Z,79.16
2017-03-14T05:05:48.698Z,79.06
2017-03-14T05:06:58.559Z,78.97
2017-03-14T05:08:08.884Z,79.16
2017-03-14T05:09:19.372Z,79.06
2017-03-14T05:10:29.633Z,78.97
2017-03-14T05:11:39.525Z,78.97
2017-03-14T05:12:49.928Z,79.06
2017-03-14T05:14:00.209Z,78.97
2017-03-14T05:15:10.698Z,78.78
2017-03-14T05:16:20.967Z,79.06
2017-03-14T05:17:31.236Z,78.88
2017-03-14T05:18:41.515Z,78.78
2017-03-14T05:19:51.807Z,78.88
2017-03-14T05:21:02.337Z,78.59
2017-03-14T05:22:12.692Z,78.69
2017-03-14T05:23:23.019Z,78.78
2017-03-14T05:24:32.876Z,78.3
2017-03-14T05:25:43.241Z,78.4
2017-03-14T05:26:53.798Z,78.59
2017-03-14T05:28:04.199Z,78.5
2017-03-14T05:29:14.452Z,78.59
2017-03-14T05:30:24.396Z,78.21
2017-03-14T05:31:34.727Z,78.3
2017-03-14T05:32:45.205Z,78.3
2017-03-14T05:33:55.493Z,78.59
2017-03-14T05:35:05.782Z,78.97
2017-03-14T05:36:16.094Z,78.78
2017-03-14T05:37:26.463Z,79.06
2017-03-14T05:38:36.572Z,78.78
2017-03-14T05:39:46.830Z,78.97
2017-03-14T05:40:57.082Z,78.78
2017-03-14T05:42:07.388Z,79.06
2017-03-14T05:43:17.698Z,79.16
2017-03-14T05:44:28.219Z,79.06
2017-03-14T05:45:38.564Z,78.97
2017-03-14T05:46:48.827Z,79.06
2017-03-14T05:47:59.122Z,78.78
2017-03-14T05:49:09.398Z,78.88
2017-03-14T05:50:51.651Z,78.97
2017-03-14T05:52:01.520Z,78.88
2017-03-14T05:53:11.836Z,79.06
2017-03-14T05:54:22.088Z,79.06
2017-03-14T05:55:32.604Z,78.97
2017-03-14T05:56:42.854Z,79.16
2017-03-14T05:57:52.725Z,78.97
2017-03-14T05:59:02.982Z,78.59
2017-03-14T06:00:13.268Z,78.5
2017-03-14T06:01:23.363Z,78.78
2017-03-14T06:02:33.619Z,78.4
2017-03-14T06:03:43.953Z,78.69
2017-03-14T06:04:53.887Z,78.59
2017-03-14T06:06:04.166Z,78.21
2017-03-14T06:07:14.661Z,78.11
2017-03-14T06:08:24.549Z,78.11
2017-03-14T06:09:35.024Z,78.21
2017-03-14T06:10:44.996Z,78.11
2017-03-14T06:11:55.272Z,78.11
2017-03-14T06:13:05.795Z,78.02
2017-03-14T06:14:16.080Z,78.21
2017-03-14T06:15:26.323Z,78.3
2017-03-14T06:16:36.574Z,78.21
2017-03-14T06:17:46.474Z,78.02
2017-03-14T06:18:56.982Z,77.92
2017-03-14T06:20:07.256Z,77.64
2017-03-14T06:21:17.481Z,77.55
2017-03-14T06:22:27.789Z,77.73
2017-03-14T06:23:38.190Z,77.55
2017-03-14T06:24:48.710Z,77.55
2017-03-14T06:25:58.986Z,77.55
2017-03-14T06:27:09.311Z,77.55
2017-03-14T06:28:19.581Z,77.73
2017-03-14T06:29:29.881Z,77.64
2017-03-14T06:30:40.486Z,77.17
2017-03-14T06:31:50.831Z,77.07
2017-03-14T06:33:01.163Z,77.11
2017-03-14T06:34:11.658Z,77.36
2017-03-14T06:35:21.982Z,77.39
2017-03-14T06:36:31.663Z,77.36
2017-03-14T06:37:41.915Z,77.58
2017-03-14T06:38:52.204Z,77.07
2017-03-14T06:40:02.540Z,77.2
2017-03-14T06:41:12.784Z,77.2
2017-03-14T06:42:23.312Z,77.11
2017-03-14T06:43:33.245Z,76.92
2017-03-14T06:44:43.567Z,76.63
2017-03-14T06:45:53.420Z,76.73
2017-03-14T06:47:03.895Z,76.82
2017-03-14T06:48:14.483Z,76.54
2017-03-14T06:49:24.789Z,76.44
2017-03-14T06:50:35.049Z,76.92
2017-03-14T06:51:45.334Z,76.82
2017-03-14T06:52:55.590Z,76.82
2017-03-14T06:54:06.213Z,76.73
2017-03-14T06:55:16.137Z,76.73
2017-03-14T06:56:26.402Z,76.35
2017-03-14T06:57:36.649Z,76.25
2017-03-14T06:58:46.556Z,76.82
2017-03-14T06:59:57.091Z,76.25
2017-03-14T07:01:07.357Z,76.35
2017-03-14T07:02:17.685Z,76.44
2017-03-14T07:03:28.050Z,76.44
2017-03-14T07:04:38.539Z,76.25
2017-03-14T07:05:49.040Z,76.54
2017-03-14T07:06:59.338Z,76.63
2017-03-14T07:08:09.606Z,76.44
2017-03-14T07:09:19.884Z,75.78
2017-03-14T07:10:30.346Z,75.96
2017-03-14T07:11:41.474Z,75.96
2017-03-14T07:12:51.761Z,75.87
2017-03-14T07:14:02.096Z,75.87
2017-03-14T07:15:12.353Z,75.87
2017-03-14T07:16:22.221Z,75.78
2017-03-14T07:17:32.734Z,75.68
2017-03-14T07:18:43.046Z,75.53
2017-03-14T07:19:53.386Z,75.34
2017-03-14T07:21:03.680Z,74.96
2017-03-14T07:22:13.987Z,75.15
2017-03-14T07:23:24.589Z,74.96
2017-03-14T07:24:34.901Z,74.67
2017-03-14T07:25:45.153Z,74.67
2017-03-14T07:26:55.033Z,74.2
2017-03-14T07:28:04.884Z,74.48
2017-03-14T07:29:15.442Z,74.48
2017-03-14T07:30:25.780Z,74.2
2017-03-14T07:31:35.619Z,74.39
2017-03-14T07:32:45.662Z,73.91
2017-03-14T07:33:55.939Z,74.01
2017-03-14T07:35:06.050Z,73.82
2017-03-14T07:36:16.328Z,73.91
2017-03-14T07:37:26.737Z,73.63
2017-03-14T07:38:36.596Z,73.25
2017-03-14T07:39:46.918Z,72.86
2017-03-14T07:40:57.436Z,72.67
2017-03-14T07:42:07.805Z,72.96
2017-03-14T07:43:17.668Z,73.06
2017-03-14T07:44:27.976Z,73.15
2017-03-14T07:45:38.292Z,72.67
2017-03-14T07:46:48.404Z,72.11
2017-03-14T07:47:58.337Z,72.39
2017-03-14T07:49:08.691Z,72.2
2017-03-14T07:50:18.976Z,72.01
2017-03-14T07:51:28.427Z,71.82
2017-03-14T07:52:39.006Z,72.01
2017-03-14T07:53:49.249Z,72.01
2017-03-14T07:54:59.567Z,72.11
2017-03-14T07:56:09.902Z,71.82
2017-03-14T07:57:20.251Z,71
2017-03-14T07:58:30.813Z,70.62
2017-03-14T07:59:41.057Z,69.76
2017-03-14T08:00:50.912Z,69.67
2017-03-14T08:02:01.377Z,69.85
2017-03-14T08:03:11.635Z,68.9
2017-03-14T08:04:22.369Z,68.84
2017-03-14T08:05:32.667Z,68.56
2017-03-14T08:06:42.978Z,67.8
2017-03-14T08:07:53.242Z,67.99
2017-03-14T08:09:03.854Z,66.02
2017-03-14T08:10:15.054Z,65.2
2017-03-14T08:11:26.102Z,62.65
2017-03-14T08:12:37.027Z,60.78
2017-03-14T08:13:47.955Z,59.25
2017-03-14T08:14:58.240Z,58.11
2017-03-14T08:16:08.760Z,58.77
2017-03-14T08:17:18.204Z,59.44
2017-03-14T08:18:28.452Z,59.25
2017-03-14T08:19:38.790Z,60.17
2017-03-14T08:20:48.665Z,60.08
2017-03-14T08:21:59.176Z,59.6
2017-03-14T08:23:09.421Z,60.17
2017-03-14T08:24:19.686Z,60.33
2017-03-14T08:25:30.009Z,60.05
2017-03-14T08:26:40.452Z,59.67
2017-03-14T08:27:50.964Z,59.76
2017-03-14T08:29:01.330Z,60.52
2017-03-14T08:30:11.578Z,60.55
2017-03-14T08:31:21.451Z,59.79
2017-03-14T08:32:31.721Z,59.79
2017-03-14T08:33:42.256Z,59.89
2017-03-14T08:34:52.604Z,60.27
2017-03-14T08:36:02.862Z,60.14
2017-03-14T08:37:13.120Z,59.7
2017-03-14T08:38:23.387Z,60.24
2017-03-14T08:39:34.129Z,60.33
2017-03-14T08:40:44.406Z,59.95
2017-03-14T08:41:54.678Z,60.33
2017-03-14T08:43:04.945Z,60.14
2017-03-14T08:44:15.236Z,60.81
2017-03-14T08:45:26.001Z,60.91
2017-03-14T08:46:36.324Z,61.25
2017-03-14T08:47:46.584Z,61.54
2017-03-14T08:48:56.906Z,61.45
2017-03-14T08:50:07.164Z,61.35
2017-03-14T08:51:17.705Z,62.12
2017-03-14T08:52:28.028Z,61.93
2017-03-14T08:53:38.346Z,62.21
2017-03-14T08:54:48.609Z,61.54
2017-03-14T08:55:58.857Z,61.64
2017-03-14T08:57:08.957Z,61.35
2017-03-14T08:58:19.205Z,61.45
2017-03-14T08:59:29.445Z,61.54
2017-03-14T09:00:39.716Z,61.16
2017-03-14T09:01:50.004Z,61.25
2017-03-14T09:03:00.543Z,60.4
2017-03-14T09:04:10.921Z,60.3
2017-03-14T09:05:20.402Z,60.43
2017-03-14T09:06:30.651Z,59.86
2017-03-14T09:07:40.915Z,60.33
2017-03-14T09:08:51.695Z,60.24
2017-03-14T09:10:02.007Z,59.67
2017-03-14T09:11:11.865Z,59.28
2017-03-14T09:12:22.137Z,58.36
2017-03-14T09:13:32.018Z,57.5
2017-03-14T09:14:42.533Z,56.55
2017-03-14T09:15:52.422Z,56.46
2017-03-14T09:17:02.716Z,56.93
2017-03-14T09:18:12.770Z,56.84
2017-03-14T09:19:23.059Z,56.65
2017-03-14T09:20:33.692Z,56.26
2017-03-14T09:21:43.954Z,55.98
2017-03-14T09:22:54.220Z,55.98
2017-03-14T09:24:04.716Z,55.98
2017-03-14T09:25:15.236Z,55.62
2017-03-14T09:26:25.784Z,55.82
2017-03-14T09:27:36.133Z,55.34
2017-03-14T09:28:46.428Z,56.01
2017-03-14T09:29:56.689Z,55.15
2017-03-14T09:31:07.004Z,55.15
2017-03-14T09:32:17.617Z,54.96
2017-03-14T09:33:28.562Z,54.38
2017-03-14T09:34:39.628Z,54.03
2017-03-14T09:35:50.603Z,53.2
2017-03-14T09:37:01.238Z,50.26
2017-03-14T09:38:11.630Z,49.23
2017-03-14T09:39:22.582Z,48.68
2017-03-14T09:40:33.156Z,48.04
2017-03-14T09:41:44.109Z,47.27
2017-03-14T09:42:55.030Z,46.62
2017-03-14T09:44:05.839Z,43.97
2017-03-14T09:45:16.771Z,42.74
2017-03-14T09:46:27.737Z,42.47
2017-03-14T09:47:38.670Z,42.1
2017-03-14T09:48:49.631Z,41.23
2017-03-14T09:50:00.866Z,40.08
2017-03-14T09:51:11.792Z,37.91
2017-03-14T09:52:22.747Z,36.3
2017-03-14T09:53:33.727Z,36.2
2017-03-14T09:54:44.338Z,33.36
2017-03-14T09:55:55.138Z,32.97
2017-03-14T09:57:06.105Z,32.79
2017-03-14T09:58:17.107Z,33.45
2017-03-14T09:59:28.157Z,35.08
2017-03-14T10:00:39.102Z,35.16
2017-03-14T10:01:49.888Z,34.97
2017-03-14T10:03:00.858Z,35.45
2017-03-14T10:04:11.788Z,35.55
2017-03-14T10:05:22.645Z,36.2
2017-03-14T10:06:33.626Z,36.58
2017-03-14T10:07:44.426Z,36.97
2017-03-14T10:08:55.410Z,36.4
2017-03-14T10:10:05.546Z,36.2
2017-03-14T10:11:16.102Z,36.49
2017-03-14T10:12:27.155Z,36.2
2017-03-14T10:13:38.475Z,35.43
2017-03-14T10:14:49.466Z,35.05
2017-03-14T10:16:00.517Z,34.88
2017-03-14T10:17:11.483Z,34.97
2017-03-14T10:18:22.472Z,34.78
2017-03-14T10:19:33.273Z,34.31
2017-03-14T10:20:43.717Z,33.54
2017-03-14T10:21:54.797Z,33.08
2017-03-14T10:23:05.699Z,34.14
2017-03-14T10:24:15.919Z,33.08
2017-03-14T10:25:26.670Z,32.9
2017-03-14T10:26:36.875Z,33
2017-03-14T10:27:47.398Z,32.06
2017-03-14T10:28:57.616Z,31.98
2017-03-14T10:30:08.421Z,30.45
2017-03-14T10:31:19.326Z,31.03
2017-03-14T10:32:30.573Z,30.83
2017-03-14T10:33:41.137Z,29.6
2017-03-14T10:34:51.703Z,29.79
2017-03-14T10:36:02.264Z,30.35
2017-03-14T10:37:13.093Z,29.77
2017-03-14T10:38:23.629Z,29.87
2017-03-14T10:39:34.195Z,30.07
2017-03-14T10:40:44.788Z,29.77
2017-03-14T10:41:55.382Z,29.97
2017-03-14T10:43:05.607Z,30.43
2017-03-14T10:44:17.135Z,30.34
2017-03-14T10:45:27.386Z,30.16
2017-03-14T10:46:37.903Z,30.07
2017-03-14T10:47:48.494Z,30.83
2017-03-14T10:48:59.273Z,29.87
2017-03-14T10:50:10.039Z,29.97
2017-03-14T10:51:20.287Z,30.07
2017-03-14T10:52:30.943Z,29.5
2017-03-14T10:53:41.517Z,29.31
2017-03-14T10:54:52.453Z,29.11
2017-03-14T10:56:02.719Z,29.5
2017-03-14T10:57:12.928Z,28.73
2017-03-14T10:58:23.490Z,28.55
2017-03-14T10:59:34.029Z,28.64
2017-03-14T11:00:44.845Z,29.32
2017-03-14T11:01:55.405Z,29.22
2017-03-14T11:03:05.688Z,29.32
2017-03-14T11:04:15.602Z,30.07
2017-03-14T11:05:26.166Z,31.3
2017-03-14T11:06:37.065Z,32.44
2017-03-14T11:07:47.606Z,33
2017-03-14T11:08:58.170Z,34.14
2017-03-14T11:10:08.393Z,34.7
2017-03-14T11:11:17.693Z,35.64
2017-03-14T11:12:27.885Z,36.58
2017-03-14T11:13:37.830Z,37.24
2017-03-14T11:14:47.843Z,39.04
2017-03-14T11:15:57.766Z,39.7
2017-03-14T11:17:07.528Z,40.37
2017-03-14T11:18:17.755Z,40.73
2017-03-14T11:19:27.685Z,41.6
2017-03-14T11:20:37.685Z,42.24
2017-03-14T11:21:47.611Z,42.72
2017-03-14T11:22:57.532Z,43.01
2017-03-14T11:24:07.890Z,43.77
2017-03-14T11:25:17.922Z,43.76
2017-03-14T11:26:27.898Z,44.23
2017-03-14T11:27:37.905Z,44.71
2017-03-14T11:28:47.846Z,45.26
2017-03-14T11:29:58.037Z,44.98
2017-03-14T11:31:07.959Z,45.55
2017-03-14T11:32:18.013Z,45.94
2017-03-14T11:33:27.946Z,45.84
2017-03-14T11:34:37.919Z,45.84
2017-03-14T11:35:48.128Z,46.22
2017-03-14T11:36:58.094Z,45.94
2017-03-14T11:38:08.072Z,46.22
2017-03-14T11:39:18.034Z,46.41
2017-03-14T11:40:27.638Z,47.08
2017-03-14T11:41:38.147Z,47.06
2017-03-14T11:42:48.118Z,46.96
2017-03-14T11:43:58.109Z,46.87
2017-03-14T11:45:08.054Z,46.87
2017-03-14T11:46:18.040Z,46.77
2017-03-14T11:47:28.397Z,47.06
2017-03-14T11:48:38.341Z,47.73
2017-03-14T11:49:48.283Z,48.11
2017-03-14T11:50:57.972Z,48.02
2017-03-14T11:52:07.894Z,48.28
2017-03-14T11:53:18.092Z,48.11
2017-03-14T11:54:28.027Z,48.66
2017-03-14T11:55:37.679Z,48.47
2017-03-14T11:56:47.310Z,48.59
2017-03-14T11:57:57.031Z,48.88
2017-03-14T11:59:07.227Z,48.78
2017-03-14T12:00:17.163Z,48.88
2017-03-14T12:01:27.084Z,48.49
2017-03-14T12:02:36.752Z,48.68
2017-03-14T12:03:46.804Z,48.68
2017-03-14T12:04:57.041Z,48.68
2017-03-14T12:06:07.039Z,48.88
2017-03-14T12:07:16.975Z,48.78
2017-03-14T12:08:26.948Z,48.68
2017-03-14T12:09:36.934Z,48.68
2017-03-14T12:10:46.841Z,48.3
2017-03-14T12:11:56.834Z,48.39
2017-03-14T12:13:06.531Z,48.21
2017-03-14T12:14:16.179Z,47.73
2017-03-14T12:15:26.213Z,47.73
2017-03-14T12:16:36.633Z,47.44
2017-03-14T12:17:46.596Z,47.63
2017-03-14T12:18:56.597Z,47.16
2017-03-14T12:20:06.526Z,46.96
2017-03-14T12:21:16.150Z,46.77
2017-03-14T12:22:26.326Z,47.16
2017-03-14T12:23:36.271Z,47.44
2017-03-14T12:24:46.211Z,47.06
2017-03-14T12:25:56.211Z,47.34
2017-03-14T12:27:06.161Z,46.96
2017-03-14T12:28:16.060Z,46.96
2017-03-14T12:29:26.012Z,46.77
2017-03-14T12:30:35.629Z,46.51
2017-03-14T12:31:45.823Z,45.62
2017-03-14T12:32:55.584Z,45.65
2017-03-14T12:34:05.814Z,45.84
2017-03-14T12:35:15.829Z,45.84
2017-03-14T12:36:25.789Z,44.98
2017-03-14T12:37:36.015Z,45.07
2017-03-14T12:38:46.022Z,45.26
2017-03-14T12:39:56.298Z,45.36
2017-03-14T12:41:06.342Z,45.48
2017-03-14T12:42:15.936Z,45
2017-03-14T12:43:25.582Z,45.17
2017-03-14T12:44:35.542Z,45.38
2017-03-14T12:45:45.749Z,45.76
2017-03-14T12:46:55.716Z,45.48
2017-03-14T12:48:05.718Z,45.76
2017-03-14T12:49:15.663Z,46.05
2017-03-14T12:50:25.631Z,45.76
2017-03-14T12:51:35.886Z,46.03
2017-03-14T12:52:45.987Z,46.31
2017-03-14T12:53:55.901Z,46.61
2017-03-14T12:55:05.916Z,46.8
2017-03-14T12:56:15.834Z,47.56
2017-03-14T12:57:26.000Z,47.56
2017-03-14T12:58:35.975Z,47.94
2017-03-14T12:59:45.958Z,48.02
2017-03-14T13:00:55.910Z,48.39
2017-03-14T13:02:05.846Z,48.39
2017-03-14T13:03:16.061Z,48.68
2017-03-14T13:04:26.031Z,48.59
2017-03-14T13:05:36.037Z,48.97
2017-03-14T13:06:46.016Z,49.55
2017-03-14T13:07:56.016Z,50.09
2017-03-14T13:09:06.239Z,49.9
2017-03-14T13:10:16.171Z,49.8
2017-03-14T13:11:26.275Z,49.9
2017-03-14T13:12:36.256Z,50
2017-03-14T13:13:46.207Z,49.8
2017-03-14T13:14:56.515Z,50.09
2017-03-14T13:16:06.503Z,50
2017-03-14T13:17:16.112Z,50
2017-03-14T13:18:26.113Z,50
2017-03-14T13:19:36.044Z,50
2017-03-14T13:20:46.236Z,49.9
2017-03-14T13:21:56.234Z,49.9
2017-03-14T13:23:05.828Z,50
2017-03-14T13:24:15.807Z,50.19
2017-03-14T13:25:25.778Z,50.09
2017-03-14T13:26:35.962Z,50.19
2017-03-14T13:27:46.106Z,49.9
2017-03-14T13:28:56.037Z,50.86
2017-03-14T13:30:05.968Z,50.67
2017-03-14T13:31:15.912Z,50.86
2017-03-14T13:32:26.121Z,50.57
2017-03-14T13:33:36.087Z,50.86
2017-03-14T13:34:46.061Z,50.57
2017-03-14T13:35:56.209Z,49.9
2017-03-14T13:37:06.160Z,50.19
2017-03-14T13:38:16.393Z,50.09
2017-03-14T13:39:26.353Z,50.29
2017-03-14T13:40:36.282Z,50.19
2017-03-14T13:41:46.209Z,50
2017-03-14T13:42:56.249Z,50.38
2017-03-14T13:44:06.555Z,50.19
2017-03-14T13:45:16.546Z,50.29
2017-03-14T13:46:26.623Z,49.74
2017-03-14T13:47:36.692Z,49.55
2017-03-14T13:48:46.680Z,49.26
2017-03-14T13:49:56.907Z,49.55
2017-03-14T13:51:06.933Z,49.26
2017-03-14T13:52:16.910Z,48.78
2017-03-14T13:53:26.864Z,48.97
2017-03-14T13:54:36.823Z,49.07
2017-03-14T13:55:47.056Z,49.45
2017-03-14T13:56:57.075Z,50.21
2017-03-14T13:58:07.048Z,49.74
2017-03-14T13:59:17.019Z,49.45
2017-03-14T14:00:26.982Z,49.64
2017-03-14T14:01:37.347Z,50.02
2017-03-14T14:02:50.396Z,49.93
2017-03-14T14:13:58.738Z,50
2017-03-14T14:15:08.367Z,50.19
2017-03-14T14:16:18.326Z,50.38
2017-03-14T14:17:28.321Z,50.29
2017-03-14T14:18:38.338Z,50.19
2017-03-14T14:19:48.202Z,50.67
2017-03-14T14:20:58.139Z,50.67
2017-03-14T14:22:08.072Z,50.48
2017-03-14T14:23:18.148Z,50.6
2017-03-14T14:24:27.822Z,50.76
2017-03-14T14:25:38.025Z,50.41
2017-03-14T14:26:48.004Z,49.93
2017-03-14T14:27:57.934Z,50.12
2017-03-14T14:29:08.003Z,50.02
2017-03-14T14:30:18.016Z,49.93
2017-03-14T14:31:28.203Z,50.02
2017-03-14T14:32:38.309Z,49.74
2017-03-14T14:33:48.268Z,49.84
2017-03-14T14:34:57.884Z,50.02
2017-03-14T14:36:07.826Z,49.93
2017-03-14T14:37:18.094Z,50.02
2017-03-14T14:38:28.180Z,49.35
2017-03-14T14:39:38.103Z,49.45
2017-03-14T14:40:47.716Z,49.55
2017-03-14T14:41:57.705Z,49.35
2017-03-14T14:43:07.905Z,49.45
2017-03-14T14:44:17.839Z,49.84
2017-03-14T14:45:27.840Z,49.84
2017-03-14T14:46:37.970Z,50.02
2017-03-14T14:47:47.918Z,50.21
2017-03-14T14:48:58.182Z,49.84
2017-03-14T14:50:08.168Z,49.84
2017-03-14T14:51:18.108Z,50.41
2017-03-14T14:52:28.121Z,50.02
2017-03-14T14:53:37.883Z,50.02
2017-03-14T14:54:48.133Z,50.12
2017-03-14T14:55:58.077Z,50.21
2017-03-14T14:57:07.997Z,50.5
2017-03-14T14:58:17.957Z,50.5
2017-03-14T14:59:27.936Z,50.5
2017-03-14T15:00:38.296Z,51.27
2017-03-14T15:01:48.442Z,51.07
2017-03-14T15:02:58.379Z,50.89
2017-03-14T15:04:08.352Z,51.56
2017-03-14T15:05:18.469Z,51.07
2017-03-14T15:06:28.673Z,51.36
2017-03-14T15:07:38.316Z,51.46
2017-03-14T15:08:48.255Z,51.07
2017-03-14T15:09:57.887Z,50.98
2017-03-14T15:11:07.886Z,51.07
2017-03-14T15:12:18.131Z,51.36
2017-03-14T15:13:28.216Z,50.89
2017-03-14T15:14:38.152Z,51.07
2017-03-14T15:15:48.118Z,51.27
2017-03-14T15:16:58.104Z,51.17
2017-03-14T15:18:08.329Z,51.27
2017-03-14T15:19:18.249Z,50.98